Time;durP1;ratioP1;P1;durP2;ratioP2;P2;SDS_P1;SDS_P2;PMS_P1;PMS_P2;Temp;Humidity;BMP_temperature;BMP_pressure;BME280_temperature;BME280_humidity;BME280_pressure;Samples;Min_cycle;Max_cycle;Signal;HPM_P1;HPM_P2
2023/05/26 00:00:23;;;;;;;0.20;0.20;;;;;;;;;;5125898;27;20047;-46
2023/05/26 00:02:49;;;;;;;0.20;0.20;;;;;;;;;;5131147;27;20053;-47
2023/05/26 00:05:16;;;;;;;0.20;0.20;;;;;;;;;;5134493;27;20537;-47
2023/05/26 00:07:42;;;;;;;0.10;0.10;;;;;;;;;;5133728;27;20089;-47
2023/05/26 00:10:08;;;;;;;0.20;0.20;;;;;;;;;;5106706;27;20482;-47
2023/05/26 00:12:34;;;;;;;0.20;0.20;;;;;;;;;;5094499;28;20073;-49
2023/05/26 00:14:59;;;;;;;0.20;0.20;;;;;;;;;;5100183;27;20491;-47
2023/05/26 00:17:25;;;;;;;0.20;0.20;;;;;;;;;;5126313;27;20333;-47
2023/05/26 00:19:52;;;;;;;0.20;0.20;;;;;;;;;;5115473;27;20269;-47
2023/05/26 00:22:18;;;;;;;0.20;0.20;;;;;;;;;;5101348;28;20043;-48
2023/05/26 00:24:45;;;;;;;0.20;0.20;;;;;;;;;;5105285;27;20124;-47
2023/05/26 00:27:11;;;;;;;0.20;0.20;;;;;;;;;;5111151;27;20466;-50
2023/05/26 00:29:37;;;;;;;0.20;0.20;;;;;;;;;;5134044;27;20713;-47
2023/05/26 00:32:03;;;;;;;0.20;0.20;;;;;;;;;;5136585;27;20406;-48
2023/05/26 00:34:28;;;;;;;0.20;0.20;;;;;;;;;;5137038;27;20105;-48
2023/05/26 00:36:54;;;;;;;0.20;0.20;;;;;;;;;;5124508;27;20082;-47
2023/05/26 00:39:19;;;;;;;0.20;0.20;;;;;;;;;;5113948;27;20043;-47
2023/05/26 00:41:45;;;;;;;0.20;0.20;;;;;;;;;;5110974;27;20726;-48
2023/05/26 00:44:10;;;;;;;0.20;0.20;;;;;;;;;;5114680;27;20193;-48
2023/05/26 00:46:36;;;;;;;0.22;0.22;;;;;;;;;;5124087;27;20090;-48
2023/05/26 00:49:02;;;;;;;0.20;0.20;;;;;;;;;;5129813;27;20377;-47
2023/05/26 00:51:28;;;;;;;0.20;0.20;;;;;;;;;;5122112;27;20073;-48
2023/05/26 00:53:54;;;;;;;0.20;0.20;;;;;;;;;;5115962;28;20054;-48
2023/05/26 00:56:20;;;;;;;0.20;0.20;;;;;;;;;;5116183;28;20380;-46
2023/05/26 00:58:45;;;;;;;0.20;0.20;;;;;;;;;;5116457;28;20188;-47
2023/05/26 01:01:12;;;;;;;0.30;0.30;;;;;;;;;;5119802;27;20062;-48
2023/05/26 01:03:38;;;;;;;0.20;0.20;;;;;;;;;;5109148;27;20047;-47
2023/05/26 01:06:04;;;;;;;0.20;0.20;;;;;;;;;;5123095;27;20039;-48
2023/05/26 01:08:30;;;;;;;0.20;0.20;;;;;;;;;;5124255;27;20049;-48
2023/05/26 01:11:03;;;;;;;0.20;0.20;;;;;;;;;;5126769;27;20065;-47
2023/05/26 01:13:31;;;;;;;0.20;0.20;;;;;;;;;;5123620;27;20047;-49
2023/05/26 01:15:59;;;;;;;0.20;0.20;;;;;;;;;;5097088;28;20066;-47
2023/05/26 01:18:29;;;;;;;0.20;0.20;;;;;;;;;;5135870;27;20069;-47
2023/05/26 01:21:05;;;;;;;0.20;0.20;;;;;;;;;;5130342;27;20542;-48
2023/05/26 01:23:51;;;;;;;0.20;0.20;;;;;;;;;;5124874;27;20501;-48
2023/05/26 01:26:36;;;;;;;0.20;0.20;;;;;;;;;;5117184;27;20621;-48
2023/05/26 01:29:05;;;;;;;0.20;0.20;;;;;;;;;;5104554;27;20081;-48
2023/05/26 01:31:33;;;;;;;0.20;0.20;;;;;;;;;;5134436;27;20203;-46
2023/05/26 01:33:59;;;;;;;0.10;0.10;;;;;;;;;;5135542;27;20047;-48
2023/05/26 01:36:28;;;;;;;0.20;0.20;;;;;;;;;;5133606;27;20057;-47
2023/05/26 01:38:54;;;;;;;0.20;0.20;;;;;;;;;;5144149;27;20085;-47
2023/05/26 01:41:33;;;;;;;0.20;0.20;;;;;;;;;;5134600;27;20095;-48
2023/05/26 01:44:00;;;;;;;0.20;0.20;;;;;;;;;;5116288;27;20443;-48
2023/05/26 01:46:29;;;;;;;0.20;0.20;;;;;;;;;;5130396;27;20088;-47
2023/05/26 01:48:54;;;;;;;;;;;;;;;;;;5117061;27;20491;-47
2023/05/26 01:51:21;;;;;;;0.20;0.20;;;;;;;;;;5133654;27;19929;-47
2023/05/26 01:53:49;;;;;;;0.20;0.20;;;;;;;;;;5135329;27;20140;-48
2023/05/26 01:56:16;;;;;;;0.20;0.20;;;;;;;;;;5129638;27;20458;-47
2023/05/26 01:58:43;;;;;;;0.20;0.20;;;;;;;;;;5115984;27;20130;-47
2023/05/26 02:01:09;;;;;;;0.20;0.20;;;;;;;;;;5115029;27;20088;-48
2023/05/26 02:03:35;;;;;;;0.20;0.20;;;;;;;;;;5135419;27;20193;-47
2023/05/26 02:06:01;;;;;;;0.20;0.20;;;;;;;;;;5127198;27;20055;-47
2023/05/26 02:08:27;;;;;;;0.20;0.20;;;;;;;;;;5129023;27;20065;-48
2023/05/26 02:10:52;;;;;;;0.20;0.20;;;;;;;;;;5127213;27;20239;-48
2023/05/26 02:13:18;;;;;;;0.20;0.20;;;;;;;;;;5133400;27;20471;-48
2023/05/26 02:15:43;;;;;;;0.20;0.20;;;;;;;;;;5134925;27;20089;-47
2023/05/26 02:18:10;;;;;;;0.20;0.20;;;;;;;;;;5135270;27;20148;-47
2023/05/26 02:20:36;;;;;;;0.20;0.20;;;;;;;;;;5130092;27;20053;-50
2023/05/26 02:23:02;;;;;;;0.20;0.20;;;;;;;;;;5125083;27;20039;-47
2023/05/26 02:25:27;;;;;;;0.20;0.20;;;;;;;;;;5106639;27;20051;-48
2023/05/26 02:27:53;;;;;;;0.20;0.20;;;;;;;;;;5117926;27;20159;-49
2023/05/26 02:30:18;;;;;;;0.20;0.20;;;;;;;;;;5129767;27;20054;-48
2023/05/26 02:32:44;;;;;;;0.20;0.20;;;;;;;;;;5133324;27;20585;-48
2023/05/26 02:35:09;;;;;;;0.20;0.20;;;;;;;;;;5131037;27;20050;-47
2023/05/26 02:37:35;;;;;;;0.20;0.20;;;;;;;;;;5124744;27;20050;-48
2023/05/26 02:40:00;;;;;;;0.20;0.20;;;;;;;;;;5134058;27;20414;-49
2023/05/26 02:42:26;;;;;;;0.20;0.20;;;;;;;;;;5134205;27;20049;-48
2023/05/26 02:44:52;;;;;;;0.20;0.20;;;;;;;;;;5115520;27;20133;-49
2023/05/26 02:47:17;;;;;;;0.20;0.20;;;;;;;;;;5134754;27;20121;-48
2023/05/26 02:49:43;;;;;;;0.20;0.20;;;;;;;;;;5134122;27;20477;-48
2023/05/26 02:52:08;;;;;;;0.20;0.20;;;;;;;;;;5134201;27;20269;-47
2023/05/26 02:54:34;;;;;;;0.20;0.20;;;;;;;;;;5133892;27;20423;-47
2023/05/26 02:56:59;;;;;;;0.20;0.20;;;;;;;;;;5134760;27;20095;-48
2023/05/26 02:59:25;;;;;;;0.20;0.20;;;;;;;;;;5133631;27;20069;-48
2023/05/26 03:01:51;;;;;;;0.20;0.20;;;;;;;;;;5133540;27;20117;-47
2023/05/26 03:04:16;;;;;;;0.20;0.20;;;;;;;;;;5134155;27;20047;-48
2023/05/26 03:06:42;;;;;;;0.20;0.20;;;;;;;;;;5112235;27;20095;-48
2023/05/26 03:09:08;;;;;;;0.20;0.20;;;;;;;;;;5124769;27;20047;-47
2023/05/26 03:11:33;;;;;;;0.20;0.20;;;;;;;;;;5126541;27;20047;-48
2023/05/26 03:13:59;;;;;;;0.20;0.20;;;;;;;;;;5124048;27;20051;-47
2023/05/26 03:16:25;;;;;;;0.20;0.20;;;;;;;;;;5107431;27;20444;-48
2023/05/26 03:18:51;;;;;;;0.20;0.20;;;;;;;;;;5128423;27;20134;-48
2023/05/26 03:21:17;;;;;;;0.20;0.20;;;;;;;;;;5128873;27;20070;-47
2023/05/26 03:24:02;;;;;;;0.20;0.20;;;;;;;;;;5118819;27;20046;-48
2023/05/26 03:26:28;;;;;;;0.20;0.20;;;;;;;;;;5134263;27;20054;-48
2023/05/26 03:28:53;;;;;;;0.20;0.20;;;;;;;;;;5115250;27;20225;-50
2023/05/26 03:31:19;;;;;;;0.20;0.20;;;;;;;;;;5125349;27;20521;-47
2023/05/26 03:33:45;;;;;;;0.20;0.20;;;;;;;;;;5133722;27;20051;-48
2023/05/26 03:36:10;;;;;;;0.20;0.20;;;;;;;;;;5135541;27;20518;-49
2023/05/26 03:38:36;;;;;;;0.20;0.20;;;;;;;;;;5133624;27;20482;-48
2023/05/26 03:41:02;;;;;;;0.20;0.20;;;;;;;;;;5133012;27;20042;-48
2023/05/26 03:43:27;;;;;;;0.20;0.20;;;;;;;;;;5133286;27;20047;-50
2023/05/26 03:45:53;;;;;;;0.20;0.20;;;;;;;;;;5134020;27;20091;-50
2023/05/26 03:48:18;;;;;;;0.20;0.20;;;;;;;;;;5133726;27;20047;-48
2023/05/26 03:50:46;;;;;;;0.20;0.20;;;;;;;;;;5127533;27;20047;-49
2023/05/26 03:53:12;;;;;;;0.20;0.20;;;;;;;;;;5128227;27;20086;-50
2023/05/26 03:55:37;;;;;;;0.20;0.20;;;;;;;;;;5134505;27;20039;-48
2023/05/26 03:58:03;;;;;;;0.20;0.20;;;;;;;;;;5137198;27;20474;-48
2023/05/26 04:00:31;;;;;;;0.20;0.20;;;;;;;;;;5136376;27;20046;-48
2023/05/26 04:02:58;;;;;;;0.10;0.10;;;;;;;;;;5119260;27;20039;-48
2023/05/26 04:05:24;;;;;;;0.20;0.20;;;;;;;;;;5137622;27;20046;-49
2023/05/26 04:07:50;;;;;;;0.20;0.20;;;;;;;;;;5132556;27;20165;-48
2023/05/26 04:10:16;;;;;;;0.20;0.20;;;;;;;;;;5126818;27;20298;-47
2023/05/26 04:12:41;;;;;;;0.20;0.20;;;;;;;;;;5132999;27;20066;-47
2023/05/26 04:15:09;;;;;;;0.20;0.20;;;;;;;;;;5118800;27;20047;-47
2023/05/26 04:17:34;;;;;;;0.20;0.20;;;;;;;;;;5137536;27;20043;-48
2023/05/26 04:20:00;;;;;;;0.20;0.20;;;;;;;;;;5108054;27;20429;-48
2023/05/26 04:22:29;;;;;;;0.20;0.20;;;;;;;;;;5100557;27;20039;-47
2023/05/26 04:24:55;;;;;;;0.20;0.20;;;;;;;;;;5130617;27;20093;-47
2023/05/26 04:27:24;;;;;;;0.20;0.20;;;;;;;;;;5116510;28;20047;-49
2023/05/26 04:29:50;;;;;;;0.20;0.20;;;;;;;;;;5107025;27;20077;-50
2023/05/26 04:32:16;;;;;;;0.20;0.20;;;;;;;;;;5136240;27;20047;-48
2023/05/26 04:34:44;;;;;;;0.20;0.20;;;;;;;;;;5136373;27;20057;-47
2023/05/26 04:37:10;;;;;;;0.20;0.20;;;;;;;;;;5137644;27;20498;-47
2023/05/26 04:39:35;;;;;;;0.20;0.20;;;;;;;;;;5117894;27;20054;-48
2023/05/26 04:42:03;;;;;;;0.20;0.20;;;;;;;;;;5135548;27;20159;-47
2023/05/26 04:44:29;;;;;;;0.10;0.10;;;;;;;;;;5136209;27;20078;-48
2023/05/26 04:46:54;;;;;;;0.20;0.20;;;;;;;;;;5134250;27;20045;-47
2023/05/26 04:49:23;;;;;;;0.20;0.20;;;;;;;;;;5127078;27;20043;-48
2023/05/26 04:51:52;;;;;;;0.20;0.20;;;;;;;;;;5135371;27;20039;-47
2023/05/26 04:54:17;;;;;;;0.20;0.20;;;;;;;;;;5109139;28;20153;-47
2023/05/26 04:56:43;;;;;;;0.20;0.20;;;;;;;;;;5124033;27;20294;-49
2023/05/26 04:59:08;;;;;;;0.20;0.20;;;;;;;;;;5127490;27;20049;-46
2023/05/26 05:01:34;;;;;;;0.20;0.20;;;;;;;;;;5131659;27;20062;-47
2023/05/26 05:03:59;;;;;;;0.20;0.20;;;;;;;;;;5115055;27;20043;-47
2023/05/26 05:06:25;;;;;;;0.20;0.20;;;;;;;;;;5117763;27;20054;-48
2023/05/26 05:08:50;;;;;;;0.20;0.20;;;;;;;;;;5101407;28;20086;-48
2023/05/26 05:11:16;;;;;;;0.20;0.20;;;;;;;;;;5127928;27;20459;-47
2023/05/26 05:13:42;;;;;;;0.20;0.20;;;;;;;;;;5127942;27;20045;-48
2023/05/26 05:16:07;;;;;;;0.20;0.20;;;;;;;;;;5119839;27;20047;-48
2023/05/26 05:18:33;;;;;;;0.20;0.20;;;;;;;;;;5130018;27;20043;-50
2023/05/26 05:20:59;;;;;;;0.20;0.20;;;;;;;;;;5122477;27;20051;-48
2023/05/26 05:23:24;;;;;;;0.20;0.20;;;;;;;;;;5108207;27;20407;-50
2023/05/26 05:25:50;;;;;;;0.20;0.20;;;;;;;;;;5129984;27;20126;-47
2023/05/26 05:28:15;;;;;;;0.20;0.20;;;;;;;;;;5122520;27;20050;-47
2023/05/26 05:30:41;;;;;;;0.20;0.20;;;;;;;;;;5127037;27;20246;-47
2023/05/26 05:33:09;;;;;;;0.10;0.10;;;;;;;;;;5130511;27;20440;-48
2023/05/26 05:35:35;;;;;;;0.20;0.20;;;;;;;;;;5124035;27;20102;-51
2023/05/26 05:38:01;;;;;;;0.20;0.20;;;;;;;;;;5134683;27;20132;-50
2023/05/26 05:40:26;;;;;;;0.20;0.20;;;;;;;;;;5120834;27;20046;-50
2023/05/26 05:42:52;;;;;;;0.20;0.20;;;;;;;;;;5122877;27;20340;-47
2023/05/26 05:45:17;;;;;;;0.20;0.20;;;;;;;;;;5117013;27;20051;-47
2023/05/26 05:47:43;;;;;;;0.13;0.13;;;;;;;;;;5117404;27;20082;-48
2023/05/26 05:50:09;;;;;;;0.20;0.20;;;;;;;;;;5125730;27;20039;-48
2023/05/26 05:52:34;;;;;;;0.20;0.20;;;;;;;;;;5122679;27;20418;-47
2023/05/26 05:55:00;;;;;;;0.20;0.20;;;;;;;;;;5113598;27;20361;-52
2023/05/26 05:57:25;;;;;;;0.20;0.20;;;;;;;;;;5121508;27;20401;-54
2023/05/26 05:59:51;;;;;;;0.20;0.20;;;;;;;;;;5105679;27;20530;-55
2023/05/26 06:02:16;;;;;;;0.25;0.20;;;;;;;;;;5121299;27;20134;-54
2023/05/26 06:04:42;;;;;;;0.20;0.20;;;;;;;;;;5122149;27;20275;-54
2023/05/26 06:07:07;;;;;;;0.20;0.20;;;;;;;;;;5117711;27;20043;-55
2023/05/26 06:09:34;;;;;;;0.20;0.20;;;;;;;;;;5123427;27;20129;-53
2023/05/26 06:12:01;;;;;;;0.20;0.20;;;;;;;;;;5124624;27;20058;-49
2023/05/26 06:14:27;;;;;;;0.20;0.20;;;;;;;;;;5127104;27;20050;-54
2023/05/26 06:16:52;;;;;;;0.20;0.20;;;;;;;;;;5126374;27;20121;-54
2023/05/26 06:19:18;;;;;;;0.20;0.20;;;;;;;;;;5125114;27;20158;-54
2023/05/26 06:21:43;;;;;;;0.20;0.20;;;;;;;;;;5117300;27;20050;-52
2023/05/26 06:24:09;;;;;;;0.13;0.13;;;;;;;;;;5127145;27;20043;-53
2023/05/26 06:26:35;;;;;;;0.20;0.20;;;;;;;;;;5117897;27;20599;-52
2023/05/26 06:29:00;;;;;;;0.20;0.20;;;;;;;;;;5120980;27;20465;-54
2023/05/26 06:31:26;;;;;;;0.30;0.30;;;;;;;;;;5119542;27;20058;-52
2023/05/26 06:33:51;;;;;;;0.20;0.20;;;;;;;;;;5125344;27;20058;-52
2023/05/26 06:36:17;;;;;;;0.20;0.20;;;;;;;;;;5115971;27;20207;-54
2023/05/26 06:38:42;;;;;;;0.20;0.20;;;;;;;;;;5137031;27;20089;-53
2023/05/26 06:41:08;;;;;;;0.20;0.20;;;;;;;;;;5126737;27;20070;-54
2023/05/26 06:43:34;;;;;;;0.20;0.20;;;;;;;;;;5115120;27;20047;-54
2023/05/26 06:45:59;;;;;;;0.20;0.20;;;;;;;;;;5120647;27;20176;-54
2023/05/26 06:48:25;;;;;;;0.20;0.20;;;;;;;;;;5109476;27;20050;-55
2023/05/26 06:50:53;;;;;;;0.20;0.20;;;;;;;;;;5114208;27;20127;-53
2023/05/26 06:53:18;;;;;;;0.20;0.20;;;;;;;;;;5109571;27;20895;-54
2023/05/26 06:55:44;;;;;;;0.20;0.20;;;;;;;;;;5104555;27;20059;-52
2023/05/26 06:58:09;;;;;;;0.20;0.20;;;;;;;;;;5104723;27;20073;-55
2023/05/26 07:00:35;;;;;;;0.20;0.20;;;;;;;;;;5101060;27;21391;-53
2023/05/26 07:03:00;;;;;;;0.20;0.20;;;;;;;;;;5100210;27;20073;-55
2023/05/26 07:05:26;;;;;;;0.20;0.20;;;;;;;;;;5081619;27;20043;-54
2023/05/26 07:07:51;;;;;;;0.20;0.20;;;;;;;;;;5089969;27;20039;-54
2023/05/26 07:10:17;;;;;;;0.32;0.32;;;;;;;;;;5096946;27;20345;-48
2023/05/26 07:12:42;;;;;;;0.20;0.20;;;;;;;;;;5098175;27;20134;-47
2023/05/26 07:15:08;;;;;;;0.20;0.20;;;;;;;;;;5095326;27;20153;-51
2023/05/26 07:17:34;;;;;;;0.20;0.20;;;;;;;;;;5108494;27;20067;-48
2023/05/26 07:19:59;;;;;;;0.20;0.20;;;;;;;;;;5111548;27;20566;-52
2023/05/26 07:22:25;;;;;;;0.20;0.20;;;;;;;;;;5111970;27;20046;-48
2023/05/26 07:24:51;;;;;;;0.20;0.20;;;;;;;;;;5108733;27;20047;-50
2023/05/26 07:27:16;;;;;;;0.20;0.20;;;;;;;;;;5106523;27;20494;-48
2023/05/26 07:29:42;;;;;;;0.20;0.20;;;;;;;;;;5124420;27;20115;-49
2023/05/26 07:32:07;;;;;;;0.20;0.20;;;;;;;;;;5122160;27;20589;-49
2023/05/26 07:34:33;;;;;;;0.20;0.20;;;;;;;;;;5121097;27;20426;-49
2023/05/26 07:36:58;;;;;;;0.20;0.20;;;;;;;;;;5118011;27;20084;-47
2023/05/26 07:39:24;;;;;;;0.20;0.20;;;;;;;;;;5098283;27;20047;-48
2023/05/26 07:41:49;;;;;;;0.20;0.20;;;;;;;;;;5121633;27;20053;-49
2023/05/26 07:44:17;;;;;;;0.20;0.20;;;;;;;;;;5118294;27;20141;-49
2023/05/26 07:46:42;;;;;;;0.20;0.20;;;;;;;;;;5115066;27;20178;-47
2023/05/26 07:49:08;;;;;;;0.20;0.20;;;;;;;;;;5115094;27;20047;-49
2023/05/26 07:51:33;;;;;;;0.20;0.20;;;;;;;;;;5115602;27;20512;-50
2023/05/26 07:53:59;;;;;;;0.20;0.20;;;;;;;;;;5119612;27;20157;-48
2023/05/26 07:56:25;;;;;;;0.20;0.20;;;;;;;;;;5119454;27;20762;-50
2023/05/26 07:58:51;;;;;;;0.20;0.20;;;;;;;;;;5120672;27;20074;-49
2023/05/26 08:01:16;;;;;;;0.20;0.20;;;;;;;;;;5114690;27;20414;-51
2023/05/26 08:03:42;;;;;;;0.20;0.20;;;;;;;;;;5110365;27;20142;-50
2023/05/26 08:06:08;;;;;;;0.20;0.20;;;;;;;;;;5107427;27;20062;-49
2023/05/26 08:08:51;;;;;;;0.20;0.20;;;;;;;;;;5082730;27;20586;-48
2023/05/26 08:11:16;;;;;;;0.20;0.20;;;;;;;;;;5101015;27;20565;-48
2023/05/26 08:13:42;;;;;;;0.20;0.20;;;;;;;;;;5104230;27;20087;-48
2023/05/26 08:16:08;;;;;;;0.20;0.20;;;;;;;;;;5105830;27;20050;-47
2023/05/26 08:18:33;;;;;;;0.20;0.20;;;;;;;;;;5102064;27;20058;-48
2023/05/26 08:20:59;;;;;;;0.20;0.20;;;;;;;;;;5109131;27;20047;-47
2023/05/26 08:23:24;;;;;;;0.20;0.20;;;;;;;;;;5101154;27;20047;-48
2023/05/26 08:25:50;;;;;;;0.20;0.20;;;;;;;;;;5111080;27;20506;-46
2023/05/26 08:28:16;;;;;;;0.20;0.20;;;;;;;;;;5117737;27;20696;-49
2023/05/26 08:30:41;;;;;;;0.20;0.20;;;;;;;;;;5098790;27;20051;-46
2023/05/26 08:33:07;;;;;;;0.20;0.20;;;;;;;;;;5106146;27;20376;-46
2023/05/26 08:35:33;;;;;;;0.20;0.20;;;;;;;;;;5083520;27;20095;-47
2023/05/26 08:37:58;;;;;;;0.20;0.20;;;;;;;;;;5091018;27;20079;-48
2023/05/26 08:40:24;;;;;;;0.20;0.20;;;;;;;;;;5107801;27;20396;-47
2023/05/26 08:42:51;;;;;;;0.20;0.20;;;;;;;;;;5101387;27;20552;-47
2023/05/26 08:45:17;;;;;;;0.20;0.20;;;;;;;;;;5089450;27;20793;-47
2023/05/26 08:47:44;;;;;;;0.20;0.20;;;;;;;;;;5110628;27;20043;-50
2023/05/26 08:50:10;;;;;;;0.20;0.20;;;;;;;;;;5107501;27;20136;-49
2023/05/26 08:52:37;;;;;;;0.20;0.20;;;;;;;;;;5084931;27;20119;-48
2023/05/26 08:55:02;;;;;;;0.17;0.17;;;;;;;;;;5119820;27;20307;-51
2023/05/26 08:57:29;;;;;;;0.20;0.20;;;;;;;;;;5112867;27;20054;-51
2023/05/26 08:59:55;;;;;;;0.20;0.20;;;;;;;;;;5120867;27;20372;-50
2023/05/26 09:02:20;;;;;;;0.20;0.20;;;;;;;;;;5118394;27;20612;-45
2023/05/26 09:04:46;;;;;;;0.20;0.20;;;;;;;;;;5125889;27;20047;-48
2023/05/26 09:07:12;;;;;;;0.20;0.20;;;;;;;;;;5118755;27;20111;-48
2023/05/26 09:09:40;;;;;;;0.20;0.20;;;;;;;;;;5124757;27;20156;-48
2023/05/26 09:12:10;;;;;;;0.20;0.20;;;;;;;;;;5128513;27;20327;-49
2023/05/26 09:14:36;;;;;;;0.10;0.10;;;;;;;;;;5119100;27;20138;-48
2023/05/26 09:17:02;;;;;;;0.20;0.20;;;;;;;;;;5096112;27;20046;-48
2023/05/26 09:19:27;;;;;;;0.20;0.20;;;;;;;;;;5106440;27;20486;-47
2023/05/26 09:21:53;;;;;;;0.20;0.20;;;;;;;;;;5120493;27;20397;-47
2023/05/26 09:24:20;;;;;;;0.20;0.20;;;;;;;;;;5122537;27;20095;-47
2023/05/26 09:26:46;;;;;;;0.20;0.20;;;;;;;;;;5119655;27;20054;-47
2023/05/26 09:29:12;;;;;;;0.30;0.30;;;;;;;;;;5094667;27;20082;-46
2023/05/26 09:31:39;;;;;;;0.20;0.20;;;;;;;;;;5115010;27;20246;-48
2023/05/26 09:34:05;;;;;;;0.20;0.20;;;;;;;;;;5113967;27;20860;-50
2023/05/26 09:36:32;;;;;;;0.20;0.20;;;;;;;;;;5104472;27;20161;-52
2023/05/26 09:38:58;;;;;;;0.20;0.20;;;;;;;;;;5080919;27;20742;-48
2023/05/26 09:41:33;;;;;;;0.20;0.20;;;;;;;;;;5104470;27;20041;-48
2023/05/26 09:44:07;;;;;;;0.20;0.20;;;;;;;;;;5101578;27;20050;-48
2023/05/26 09:46:34;;;;;;;0.20;0.20;;;;;;;;;;5086579;27;20501;-49
2023/05/26 09:48:59;;;;;;;0.20;0.20;;;;;;;;;;5090032;27;20104;-51
2023/05/26 09:51:32;;;;;;;0.20;0.20;;;;;;;;;;5111001;27;20694;-49
2023/05/26 09:54:04;;;;;;;0.20;0.20;;;;;;;;;;5091021;27;20047;-48
2023/05/26 09:56:33;;;;;;;0.30;0.30;;;;;;;;;;5112089;27;20066;-50
2023/05/26 09:59:01;;;;;;;0.20;0.20;;;;;;;;;;5111729;27;20047;-47
2023/05/26 10:01:27;;;;;;;0.10;0.10;;;;;;;;;;5096313;27;20168;-47
2023/05/26 10:03:53;;;;;;;0.20;0.20;;;;;;;;;;5124071;27;20047;-52
2023/05/26 10:06:20;;;;;;;0.30;0.30;;;;;;;;;;5121515;27;20246;-48
2023/05/26 10:08:50;;;;;;;0.28;0.28;;;;;;;;;;5114022;27;20743;-51
2023/05/26 10:11:17;;;;;;;0.20;0.20;;;;;;;;;;5114438;27;20427;-49
2023/05/26 10:13:43;;;;;;;0.20;0.20;;;;;;;;;;5115013;27;20084;-47
2023/05/26 10:16:09;;;;;;;0.20;0.20;;;;;;;;;;5116224;27;20384;-47
2023/05/26 10:18:34;;;;;;;0.20;0.20;;;;;;;;;;5115224;27;20099;-49
2023/05/26 10:21:03;;;;;;;0.20;0.20;;;;;;;;;;5118594;27;20046;-49
2023/05/26 10:23:28;;;;;;;;;;;;;;;;;;5118213;27;20178;-48
2023/05/26 10:25:58;;;;;;;0.20;0.20;;;;;;;;;;5122218;27;20119;-48
2023/05/26 10:28:29;;;;;;;0.20;0.20;;;;;;;;;;5103900;27;20073;-51
2023/05/26 10:30:57;;;;;;;0.20;0.20;;;;;;;;;;5112817;27;20110;-51
2023/05/26 10:33:36;;;;;;;0.20;0.20;;;;;;;;;;5097064;28;20039;-48
2023/05/26 10:36:05;;;;;;;0.20;0.20;;;;;;;;;;5118811;27;20302;-48
2023/05/26 10:38:35;;;;;;;0.20;0.20;;;;;;;;;;5099245;27;21001;-51
2023/05/26 10:41:01;;;;;;;0.20;0.20;;;;;;;;;;5109828;27;20463;-49
2023/05/26 10:43:27;;;;;;;0.20;0.20;;;;;;;;;;5105519;27;20290;-57
2023/05/26 10:46:00;;;;;;;0.20;0.20;;;;;;;;;;5108311;27;20057;-51
2023/05/26 10:48:35;;;;;;;0.20;0.20;;;;;;;;;;5099339;27;20058;-50
2023/05/26 10:53:41;;;;;;;0.20;0.20;;;;;;;;;;5137271;27;20359;-47
2023/05/26 10:56:09;;;;;;;0.20;0.20;;;;;;;;;;5135857;27;20056;-47
2023/05/26 10:58:36;;;;;;;0.20;0.20;;;;;;;;;;5136201;27;20046;-47
2023/05/26 11:01:06;;;;;;;0.20;0.20;;;;;;;;;;5143481;27;20043;-46
2023/05/26 11:03:33;;;;;;;0.10;0.10;;;;;;;;;;5132144;27;20050;-49
2023/05/26 11:05:59;;;;;;;0.20;0.20;;;;;;;;;;5137574;27;20050;-49
2023/05/26 11:08:25;;;;;;;0.20;0.20;;;;;;;;;;5143970;27;20065;-50
2023/05/26 11:10:58;;;;;;;0.20;0.20;;;;;;;;;;5131352;27;20449;-48
2023/05/26 11:13:40;;;;;;;0.20;0.20;;;;;;;;;;5133180;27;20197;-49
2023/05/26 11:16:11;;;;;;;0.20;0.20;;;;;;;;;;5134464;27;20111;-49
2023/05/26 11:18:38;;;;;;;0.20;0.20;;;;;;;;;;5119541;27;20057;-49
2023/05/26 11:21:05;;;;;;;0.20;0.20;;;;;;;;;;5118788;27;20179;-50
2023/05/26 11:23:30;;;;;;;0.20;0.20;;;;;;;;;;5128952;27;20058;-47
2023/05/26 11:25:56;;;;;;;0.20;0.20;;;;;;;;;;5122739;27;20130;-46
2023/05/26 11:28:24;;;;;;;0.20;0.20;;;;;;;;;;5124319;27;20043;-47
2023/05/26 11:30:49;;;;;;;0.20;0.20;;;;;;;;;;5120731;27;20451;-48
2023/05/26 11:33:15;;;;;;;0.20;0.20;;;;;;;;;;5104942;27;20069;-49
2023/05/26 11:35:41;;;;;;;0.20;0.20;;;;;;;;;;5124176;27;20053;-50
2023/05/26 11:38:06;;;;;;;0.13;0.13;;;;;;;;;;5124537;27;20292;-49
2023/05/26 11:40:32;;;;;;;0.20;0.20;;;;;;;;;;5122756;27;20249;-49
2023/05/26 11:42:58;;;;;;;0.20;0.20;;;;;;;;;;5121454;27;20043;-47
2023/05/26 11:45:25;;;;;;;0.15;0.15;;;;;;;;;;5113127;27;20401;-48
2023/05/26 11:47:51;;;;;;;0.20;0.20;;;;;;;;;;5110169;27;20044;-48
2023/05/26 11:50:17;;;;;;;0.20;0.20;;;;;;;;;;5120348;27;20078;-48
2023/05/26 11:52:43;;;;;;;0.20;0.20;;;;;;;;;;5097716;27;20049;-49
2023/05/26 11:55:09;;;;;;;0.20;0.20;;;;;;;;;;5121966;27;20104;-50
2023/05/26 11:57:36;;;;;;;0.20;0.20;;;;;;;;;;5118957;27;20047;-49
2023/05/26 12:00:09;;;;;;;0.10;0.10;;;;;;;;;;5108399;27;20242;-48
2023/05/26 12:02:35;;;;;;;0.20;0.20;;;;;;;;;;5125713;27;20070;-49
2023/05/26 12:05:15;;;;;;;0.20;0.20;;;;;;;;;;5105394;27;20179;-48
2023/05/26 12:07:41;;;;;;;0.20;0.20;;;;;;;;;;5112331;28;20411;-48
2023/05/26 12:10:07;;;;;;;0.20;0.20;;;;;;;;;;5102264;27;20360;-47
2023/05/26 12:12:48;;;;;;;0.10;0.10;;;;;;;;;;5113796;28;20045;-48
2023/05/26 12:15:17;;;;;;;0.20;0.20;;;;;;;;;;5106647;28;20059;-48
2023/05/26 12:17:43;;;;;;;0.20;0.20;;;;;;;;;;5082079;28;20112;-48
2023/05/26 12:20:09;;;;;;;0.20;0.20;;;;;;;;;;5100659;27;20494;-48
2023/05/26 12:23:02;;;;;;;0.20;0.20;;;;;;;;;;5116794;27;20058;-49
2023/05/26 12:25:29;;;;;;;0.20;0.20;;;;;;;;;;5121911;27;20406;-47
2023/05/26 12:27:55;;;;;;;0.10;0.10;;;;;;;;;;5117339;28;20063;-47
2023/05/26 12:30:25;;;;;;;0.20;0.20;;;;;;;;;;5111016;27;20511;-51
2023/05/26 12:33:05;;;;;;;0.20;0.20;;;;;;;;;;5114912;28;20328;-50
2023/05/26 12:35:31;;;;;;;0.20;0.20;;;;;;;;;;5116929;28;20145;-47
2023/05/26 12:37:57;;;;;;;0.20;0.20;;;;;;;;;;5133808;27;20058;-49
2023/05/26 12:40:22;;;;;;;0.20;0.20;;;;;;;;;;5128832;27;20127;-49
2023/05/26 12:42:48;;;;;;;0.20;0.20;;;;;;;;;;5116707;28;20043;-48
2023/05/26 12:45:13;;;;;;;0.10;0.10;;;;;;;;;;5109557;28;20051;-50
2023/05/26 12:47:39;;;;;;;0.20;0.20;;;;;;;;;;5100655;28;20047;-47
2023/05/26 12:50:05;;;;;;;0.20;0.20;;;;;;;;;;5105763;27;20269;-49
2023/05/26 12:52:31;;;;;;;0.20;0.20;;;;;;;;;;5117020;27;20549;-50
2023/05/26 12:54:56;;;;;;;0.20;0.20;;;;;;;;;;5117316;27;20445;-52
2023/05/26 12:57:23;;;;;;;0.20;0.20;;;;;;;;;;5117570;28;20488;-57
2023/05/26 12:59:49;;;;;;;0.20;0.20;;;;;;;;;;5117153;27;20345;-49
2023/05/26 13:02:14;;;;;;;0.20;0.20;;;;;;;;;;5104049;27;20039;-50
2023/05/26 13:04:40;;;;;;;0.17;0.17;;;;;;;;;;5102608;28;20051;-49
2023/05/26 13:07:08;;;;;;;0.10;0.10;;;;;;;;;;5117156;28;20055;-51
2023/05/26 13:09:33;;;;;;;0.10;0.10;;;;;;;;;;5129383;27;20054;-49
2023/05/26 13:11:59;;;;;;;0.20;0.20;;;;;;;;;;5113340;28;20043;-49
2023/05/26 13:14:25;;;;;;;0.20;0.20;;;;;;;;;;5105108;27;20487;-48
2023/05/26 13:16:50;;;;;;;0.20;0.20;;;;;;;;;;5103331;28;20124;-48
2023/05/26 13:19:16;;;;;;;0.20;0.20;;;;;;;;;;5099746;28;20138;-50
2023/05/26 13:21:42;;;;;;;0.15;0.15;;;;;;;;;;5102591;27;20047;-55
2023/05/26 13:24:07;;;;;;;0.20;0.20;;;;;;;;;;5109200;28;20232;-50
2023/05/26 13:26:33;;;;;;;0.20;0.20;;;;;;;;;;5105562;28;20789;-47
2023/05/26 13:28:59;;;;;;;0.20;0.20;;;;;;;;;;5114358;28;20039;-48
2023/05/26 13:31:24;;;;;;;0.20;0.20;;;;;;;;;;5104239;27;20051;-48
2023/05/26 13:33:51;;;;;;;0.20;0.20;;;;;;;;;;5105237;28;20063;-47
2023/05/26 13:36:17;;;;;;;0.20;0.20;;;;;;;;;;5104581;27;20046;-47
2023/05/26 13:38:42;;;;;;;0.10;0.10;;;;;;;;;;5113025;28;20043;-47
2023/05/26 13:41:10;;;;;;;0.20;0.20;;;;;;;;;;5107497;27;20046;-47
2023/05/26 13:43:36;;;;;;;0.10;0.10;;;;;;;;;;5108001;28;20514;-47
2023/05/26 13:46:01;;;;;;;0.20;0.20;;;;;;;;;;5104764;28;20051;-47
2023/05/26 13:48:27;;;;;;;0.20;0.20;;;;;;;;;;5102556;28;20462;-47
2023/05/26 13:50:52;;;;;;;0.20;0.20;;;;;;;;;;5109337;27;20565;-48
2023/05/26 13:53:18;;;;;;;0.20;0.20;;;;;;;;;;5116035;28;20146;-48
2023/05/26 13:55:45;;;;;;;0.20;0.20;;;;;;;;;;5117053;27;20089;-47
2023/05/26 13:58:12;;;;;;;0.20;0.20;;;;;;;;;;5117165;27;20497;-47
2023/05/26 14:00:37;;;;;;;0.20;0.20;;;;;;;;;;5122765;27;20114;-48
2023/05/26 14:03:03;;;;;;;0.20;0.20;;;;;;;;;;5137232;27;20046;-47
2023/05/26 14:05:29;;;;;;;0.20;0.20;;;;;;;;;;5119092;27;20055;-48
2023/05/26 14:07:55;;;;;;;0.20;0.20;;;;;;;;;;5113658;27;20051;-46
2023/05/26 14:10:20;;;;;;;0.20;0.20;;;;;;;;;;5099955;27;20055;-47
2023/05/26 14:12:46;;;;;;;0.20;0.20;;;;;;;;;;5111738;28;20497;-47
2023/05/26 14:15:11;;;;;;;0.20;0.20;;;;;;;;;;5106709;28;20135;-47
2023/05/26 14:17:37;;;;;;;0.10;0.10;;;;;;;;;;5108568;28;20342;-47
2023/05/26 14:20:03;;;;;;;0.20;0.20;;;;;;;;;;5102525;27;20035;-46
2023/05/26 14:22:35;;;;;;;0.20;0.20;;;;;;;;;;5084996;28;20104;-46
2023/05/26 14:25:01;;;;;;;0.20;0.20;;;;;;;;;;5104108;28;20054;-48
2023/05/26 14:27:27;;;;;;;0.20;0.20;;;;;;;;;;5107479;27;20039;-47
2023/05/26 14:29:57;;;;;;;0.10;0.10;;;;;;;;;;5115242;27;20475;-47
2023/05/26 14:32:23;;;;;;;0.20;0.20;;;;;;;;;;5093395;28;20043;-47
2023/05/26 14:34:49;;;;;;;0.20;0.20;;;;;;;;;;5102136;28;20066;-47
2023/05/26 14:37:14;;;;;;;0.20;0.20;;;;;;;;;;5105637;28;20362;-47
2023/05/26 14:39:40;;;;;;;0.10;0.10;;;;;;;;;;5108123;27;20074;-47
2023/05/26 14:42:05;;;;;;;0.15;0.15;;;;;;;;;;5108419;28;20369;-46